Terminal Aerodrome Forecast
Issued by NWS Mt. Holly, NJ

Home | Current Version | Previous Version | Text Only | Print | Product List | Glossary On
Versions: 1 2 3 4 5 6 7 8 9 10 11 12 13 14 15 16 17
570
FTUS41 KPHI 091120
TAFTTN
TAF
KTTN 091120Z 0912/1012 07008KT P6SM OVC008
     FM091500 08006KT P6SM OVC015
     FM092100 07008KT 2SM -SN OVC006
     FM100000 06004KT 5SM BR OVC010
     FM100800 33004KT P6SM BKN040=

USA.gov is the U.S. government's official web portal to all federal, state and local government web resources and services.